Time;durP1;ratioP1;P1;durP2;ratioP2;P2;SDS_P1;SDS_P2;PMS_P1;PMS_P2;Temp;Humidity;BMP_temperature;BMP_pressure;BME280_temperature;BME280_humidity;BME280_pressure;Samples;Min_cycle;Max_cycle;Signal;HPM_P1;HPM_P2
2021/06/08 00:01:41;;;;;;;7.57;6.97;;;15.80;99.90;;;;;;5013295;28;21400;-66
2021/06/08 00:04:08;;;;;;;7.13;6.53;;;15.70;99.90;;;;;;5017993;28;20120;-66
2021/06/08 00:06:35;;;;;;;7.85;7.05;;;15.70;99.90;;;;;;5018688;28;20139;-66
2021/06/08 00:09:03;;;;;;;8.55;6.97;;;15.70;99.90;;;;;;5018770;28;20448;-66
2021/06/08 00:11:29;;;;;;;8.55;7.60;;;15.70;99.90;;;;;;5017855;28;20505;-66
2021/06/08 00:13:57;;;;;;;7.45;6.75;;;15.70;99.90;;;;;;5020528;28;20099;-66
2021/06/08 00:16:24;;;;;;;7.63;6.93;;;15.70;99.90;;;;;;5018946;28;20107;-66
2021/06/08 00:18:51;;;;;;;9.52;7.10;;;15.80;99.90;;;;;;5033432;28;20139;-66
2021/06/08 00:21:18;;;;;;;8.48;7.65;;;15.80;99.90;;;;;;5018623;28;20099;-66
2021/06/08 00:23:45;;;;;;;8.63;7.82;;;15.80;99.90;;;;;;5017538;28;20672;-66
2021/06/08 00:26:12;;;;;;;7.35;6.65;;;15.80;99.90;;;;;;5019191;28;20608;-66
2021/06/08 00:28:39;;;;;;;8.73;6.78;;;15.90;99.90;;;;;;5017269;28;22890;-66
2021/06/08 00:31:06;;;;;;;7.28;6.47;;;15.90;99.90;;;;;;5018455;28;20144;-66
2021/06/08 00:33:34;;;;;;;6.70;6.10;;;15.90;99.90;;;;;;5016585;28;20044;-66
2021/06/08 00:36:01;;;;;;;7.03;6.32;;;15.90;99.90;;;;;;5019433;28;20096;-66
2021/06/08 00:38:27;;;;;;;8.32;6.25;;;15.90;99.90;;;;;;5017029;28;20107;-66
2021/06/08 00:40:54;;;;;;;8.45;7.50;;;16.00;99.90;;;;;;5019231;28;20041;-66
2021/06/08 00:43:25;;;;;;;11.32;7.10;;;16.00;99.90;;;;;;5016468;28;20085;-66
2021/06/08 00:45:53;;;;;;;7.43;6.15;;;16.00;99.90;;;;;;5019129;28;20057;-66
2021/06/08 00:48:21;;;;;;;9.02;6.80;;;16.10;99.90;;;;;;5018450;28;20136;-66
2021/06/08 00:50:49;;;;;;;8.70;7.80;;;16.10;99.90;;;;;;5020055;28;20643;-66
2021/06/08 00:53:16;;;;;;;8.00;7.30;;;16.10;99.90;;;;;;5017673;28;20065;-66
2021/06/08 00:55:43;;;;;;;11.65;10.18;;;16.10;99.90;;;;;;5017334;28;20773;-66
2021/06/08 00:58:10;;;;;;;9.10;8.02;;;16.10;99.90;;;;;;5013767;28;20133;-66
2021/06/08 01:00:37;;;;;;;10.07;9.05;;;16.10;99.90;;;;;;5017320;28;20140;-66
2021/06/08 01:03:04;;;;;;;10.73;9.82;;;16.10;99.90;;;;;;5015004;28;20144;-66
2021/06/08 01:05:31;;;;;;;12.77;8.55;;;16.20;99.90;;;;;;5012958;28;20534;-66
2021/06/08 01:07:58;;;;;;;10.75;9.52;;;16.20;99.90;;;;;;5015350;28;20053;-66
2021/06/08 01:10:25;;;;;;;10.50;8.43;;;16.20;99.90;;;;;;5019044;28;20502;-66
2021/06/08 01:12:52;;;;;;;9.10;7.68;;;16.20;99.90;;;;;;5016289;28;20069;-66
2021/06/08 01:15:21;;;;;;;7.97;7.38;;;16.10;99.90;;;;;;5019262;28;20049;-66
2021/06/08 01:17:48;;;;;;;9.02;8.00;;;16.10;99.90;;;;;;5014728;28;22799;-66
2021/06/08 01:20:17;;;;;;;8.85;8.02;;;16.10;99.90;;;;;;5017784;28;20053;-66
2021/06/08 01:22:44;;;;;;;10.05;8.57;;;16.10;99.90;;;;;;5018143;28;20108;-66
2021/06/08 01:25:12;;;;;;;8.68;7.93;;;16.10;99.90;;;;;;5016725;28;20950;-66
2021/06/08 01:27:40;;;;;;;8.00;7.30;;;16.10;99.90;;;;;;5016386;28;20636;-66
2021/06/08 01:30:09;;;;;;;7.72;6.85;;;16.20;99.90;;;;;;5016642;28;20072;-66
2021/06/08 01:32:38;;;;;;;7.88;6.97;;;16.20;99.90;;;;;;5015574;28;20179;-66
2021/06/08 01:35:06;;;;;;;8.07;7.10;;;16.20;99.90;;;;;;5017666;28;20049;-66
2021/06/08 01:37:33;;;;;;;8.27;7.07;;;16.10;99.90;;;;;;5017431;28;20530;-66
2021/06/08 01:40:01;;;;;;;7.70;7.00;;;16.10;99.90;;;;;;5018555;28;20049;-66
2021/06/08 01:42:28;;;;;;;11.52;8.05;;;16.10;99.90;;;;;;5018211;28;20135;-66
2021/06/08 01:44:55;;;;;;;8.75;6.32;;;16.10;99.90;;;;;;5017161;28;20146;-66
2021/06/08 01:47:22;;;;;;;6.47;5.93;;;16.20;99.90;;;;;;5019560;28;20127;-66
2021/06/08 01:49:51;;;;;;;6.30;5.80;;;16.20;99.90;;;;;;5016310;28;20145;-66
2021/06/08 01:52:31;;;;;;;6.88;5.93;;;16.20;99.90;;;;;;5019243;28;20077;-66
2021/06/08 01:55:21;;;;;;;;;;;16.20;99.90;;;;;;5018541;28;20136;-66
2021/06/08 01:58:02;;;;;;;5.93;5.45;;;16.30;99.90;;;;;;5018238;28;19995;-66
2021/06/08 02:00:54;;;;;;;6.55;5.88;;;16.30;99.90;;;;;;5018849;28;20049;-66
2021/06/08 02:03:32;;;;;;;6.60;5.45;;;16.30;99.90;;;;;;5014287;28;20134;-66
2021/06/08 02:06:23;;;;;;;6.03;5.47;;;16.20;99.90;;;;;;5017222;28;20080;-66
2021/06/08 02:08:58;;;;;;;6.80;6.20;;;16.20;99.90;;;;;;5017648;28;20139;-66
2021/06/08 02:11:30;;;;;;;5.88;5.43;;;16.20;99.90;;;;;;5018869;28;20080;-66
2021/06/08 02:14:08;;;;;;;6.68;6.03;;;16.20;99.90;;;;;;5016082;28;20107;-66
2021/06/08 02:16:43;;;;;;;6.35;5.85;;;16.20;99.90;;;;;;5019132;28;20566;-66
2021/06/08 02:19:13;;;;;;;6.65;5.72;;;16.10;99.90;;;;;;5017573;28;20050;-66
2021/06/08 02:21:46;;;;;;;6.90;6.40;;;16.10;99.90;;;;;;5016436;28;20177;-66
2021/06/08 02:24:23;;;;;;;13.65;6.68;;;16.10;99.90;;;;;;5019406;28;21596;-66
2021/06/08 02:26:52;;;;;;;7.25;5.68;;;16.10;99.90;;;;;;5018577;28;20578;-66
2021/06/08 02:29:20;;;;;;;11.55;5.93;;;16.00;99.90;;;;;;5019932;28;20119;-66
2021/06/08 02:31:48;;;;;;;8.88;7.50;;;16.00;99.90;;;;;;5017072;28;20794;-66
2021/06/08 02:34:17;;;;;;;7.00;6.30;;;16.00;99.90;;;;;;5019664;28;20490;-65
2021/06/08 02:36:46;;;;;;;7.68;6.57;;;16.00;99.90;;;;;;5017031;28;20065;-65
2021/06/08 02:39:14;;;;;;;6.82;6.13;;;16.00;99.90;;;;;;5018321;28;20073;-65
2021/06/08 02:41:42;;;;;;;9.98;8.18;;;15.90;99.90;;;;;;5016743;28;20129;-65
2021/06/08 02:44:10;;;;;;;12.43;7.53;;;15.90;99.90;;;;;;5017866;28;20514;-65
2021/06/08 02:46:37;;;;;;;11.35;6.47;;;15.80;99.90;;;;;;5017012;28;20148;-65
2021/06/08 02:49:06;;;;;;;10.45;5.82;;;15.80;99.90;;;;;;5017682;28;20045;-65
2021/06/08 02:51:35;;;;;;;9.85;7.25;;;15.80;99.90;;;;;;5016013;28;20072;-65
2021/06/08 02:54:04;;;;;;;8.57;7.65;;;15.80;99.90;;;;;;5017810;28;20045;-65
2021/06/08 02:56:32;;;;;;;10.23;7.35;;;15.70;99.90;;;;;;5016288;28;20058;-64
2021/06/08 02:59:00;;;;;;;11.82;6.80;;;15.70;99.90;;;;;;5018336;28;20073;-64
2021/06/08 03:01:28;;;;;;;8.60;7.70;;;15.70;99.90;;;;;;5016850;28;20096;-64
2021/06/08 03:03:59;;;;;;;10.65;6.95;;;15.70;99.90;;;;;;5017521;28;20107;-64
2021/06/08 03:06:32;;;;;;;12.70;9.25;;;15.70;99.90;;;;;;5016776;28;20053;-64
2021/06/08 03:09:10;;;;;;;7.28;6.47;;;15.60;99.90;;;;;;5019120;28;20053;-64
2021/06/08 03:11:50;;;;;;;7.45;6.57;;;15.60;99.90;;;;;;5015301;28;20671;-64
2021/06/08 03:14:20;;;;;;;6.53;6.03;;;15.60;99.90;;;;;;5020706;28;20063;-64
2021/06/08 03:16:59;;;;;;;9.10;7.10;;;15.60;99.90;;;;;;5020003;28;20076;-64
2021/06/08 03:19:32;;;;;;;9.27;6.88;;;15.50;99.90;;;;;;5021800;28;20771;-64
2021/06/08 03:22:08;;;;;;;7.68;6.90;;;15.50;99.90;;;;;;5020356;28;20150;-64
2021/06/08 03:24:40;;;;;;;8.40;7.25;;;15.50;99.90;;;;;;5021165;28;20427;-64
2021/06/08 03:27:09;;;;;;;8.75;6.43;;;15.50;99.90;;;;;;5021933;28;20053;-64
2021/06/08 03:29:36;;;;;;;7.30;6.65;;;15.50;99.90;;;;;;5020462;28;20072;-64
2021/06/08 03:32:04;;;;;;;7.32;6.22;;;15.50;99.90;;;;;;5021930;28;20049;-64
2021/06/08 03:34:33;;;;;;;9.23;7.03;;;15.50;99.90;;;;;;5021435;28;20096;-64
2021/06/08 03:37:01;;;;;;;7.93;6.20;;;15.50;99.90;;;;;;5021050;28;20103;-64
2021/06/08 03:39:29;;;;;;;7.10;6.40;;;15.40;99.90;;;;;;5019744;28;20511;-65
2021/06/08 03:41:57;;;;;;;8.43;6.70;;;15.50;99.90;;;;;;5020202;28;20069;-64
2021/06/08 03:44:25;;;;;;;6.50;5.90;;;15.40;99.90;;;;;;5020291;28;20156;-64
2021/06/08 03:46:53;;;;;;;7.93;7.18;;;15.40;99.90;;;;;;5021620;28;21055;-64
2021/06/08 03:49:21;;;;;;;7.63;6.72;;;15.40;99.90;;;;;;5017193;28;20120;-64
2021/06/08 03:51:53;;;;;;;8.30;7.57;;;15.40;99.90;;;;;;5018253;28;20069;-64
2021/06/08 03:54:21;;;;;;;13.20;6.93;;;15.40;99.90;;;;;;5015302;28;20308;-64
2021/06/08 03:56:52;;;;;;;8.30;7.22;;;15.40;99.90;;;;;;5017368;28;20073;-64
2021/06/08 03:59:28;;;;;;;9.02;7.97;;;15.40;99.90;;;;;;5018987;28;20061;-64
2021/06/08 04:01:55;;;;;;;7.45;6.75;;;15.50;99.90;;;;;;5018097;28;20139;-64
2021/06/08 04:04:23;;;;;;;8.45;7.18;;;15.40;99.90;;;;;;5018533;28;20156;-64
2021/06/08 04:06:50;;;;;;;12.02;7.07;;;15.50;99.90;;;;;;5020011;28;20052;-64
2021/06/08 04:09:18;;;;;;;8.77;8.02;;;15.50;99.90;;;;;;5019543;28;20205;-64
2021/06/08 04:11:48;;;;;;;9.25;8.35;;;15.50;99.90;;;;;;5018693;28;20479;-64
2021/06/08 04:14:16;;;;;;;14.70;10.75;;;15.50;99.90;;;;;;5017984;28;20087;-64
2021/06/08 04:16:45;;;;;;;11.63;10.55;;;15.60;99.90;;;;;;5020443;28;20129;-64
2021/06/08 04:19:13;;;;;;;11.27;10.25;;;15.60;99.90;;;;;;5019836;28;20053;-64
2021/06/08 04:21:42;;;;;;;11.40;10.13;;;15.70;99.90;;;;;;5018758;28;20076;-64
2021/06/08 04:24:10;;;;;;;10.60;9.55;;;15.70;99.90;;;;;;5017778;28;20069;-64
2021/06/08 04:26:37;;;;;;;12.55;11.55;;;15.70;99.90;;;;;;5019997;28;20522;-67
2021/06/08 04:29:05;;;;;;;12.57;11.38;;;15.70;99.90;;;;;;5018490;28;20890;-64
2021/06/08 04:31:32;;;;;;;14.90;13.52;;;15.70;99.90;;;;;;5019440;28;20436;-64
2021/06/08 04:33:59;;;;;;;12.95;11.50;;;15.80;99.90;;;;;;5018461;28;20099;-64
2021/06/08 04:36:26;;;;;;;18.58;13.80;;;15.80;99.90;;;;;;5020182;28;20126;-64
2021/06/08 04:38:54;;;;;;;12.27;11.13;;;15.80;99.90;;;;;;5019150;28;20053;-64
2021/06/08 04:41:21;;;;;;;14.82;11.40;;;15.90;99.90;;;;;;5018241;28;20526;-64
2021/06/08 04:43:48;;;;;;;12.88;11.77;;;15.90;99.90;;;;;;5015990;28;22312;-64
2021/06/08 04:46:16;;;;;;;14.77;13.27;;;15.90;99.90;;;;;;5017506;28;20069;-64
2021/06/08 04:48:43;;;;;;;14.68;13.18;;;16.00;99.90;;;;;;5018740;28;20053;-64
2021/06/08 04:51:11;;;;;;;14.07;12.70;;;16.00;99.90;;;;;;5016552;28;20073;-64
2021/06/08 04:53:39;;;;;;;14.15;12.80;;;16.10;99.90;;;;;;5014953;28;20140;-64
2021/06/08 04:56:07;;;;;;;14.57;13.07;;;16.10;99.90;;;;;;5017253;28;20045;-64
2021/06/08 04:58:36;;;;;;;14.77;13.13;;;16.20;99.90;;;;;;5016092;28;20080;-64
2021/06/08 05:01:27;;;;;;;13.50;12.40;;;16.20;99.90;;;;;;5015290;28;20103;-64
2021/06/08 05:04:02;;;;;;;;;;;16.30;99.90;;;;;;5015589;28;20053;-64
2021/06/08 05:06:34;;;;;;;12.13;11.02;;;16.30;99.90;;;;;;5015903;28;20009;-64
2021/06/08 05:09:05;;;;;;;12.05;11.00;;;16.30;99.90;;;;;;5016672;28;20598;-64
2021/06/08 05:11:41;;;;;;;13.38;12.07;;;16.30;99.90;;;;;;5015840;28;20076;-65
2021/06/08 05:14:10;;;;;;;13.68;12.30;;;16.30;99.90;;;;;;5018182;28;20218;-64
2021/06/08 05:16:41;;;;;;;13.05;11.80;;;16.30;99.90;;;;;;5016531;28;20490;-64
2021/06/08 05:19:11;;;;;;;13.13;11.80;;;16.30;99.90;;;;;;5017828;28;20251;-64
2021/06/08 05:21:40;;;;;;;13.25;12.10;;;16.30;99.90;;;;;;5014935;28;20144;-64
2021/06/08 05:24:12;;;;;;;12.15;10.95;;;16.40;99.90;;;;;;5017720;28;20049;-64
2021/06/08 05:26:43;;;;;;;10.68;9.77;;;16.40;99.90;;;;;;5013618;28;20057;-64
2021/06/08 05:29:11;;;;;;;10.10;9.18;;;16.50;99.90;;;;;;5018315;28;20183;-65
2021/06/08 05:31:38;;;;;;;9.13;8.40;;;16.50;99.90;;;;;;5015423;28;20115;-64
2021/06/08 05:34:05;;;;;;;9.38;8.55;;;16.60;99.90;;;;;;5017394;28;20141;-64
2021/06/08 05:36:34;;;;;;;8.10;7.38;;;16.70;99.90;;;;;;5017694;28;20132;-64
2021/06/08 05:39:05;;;;;;;11.23;7.95;;;16.80;99.90;;;;;;5016957;28;20081;-64
2021/06/08 05:41:32;;;;;;;6.60;5.90;;;16.90;99.90;;;;;;5016541;28;20069;-65
2021/06/08 05:43:59;;;;;;;8.40;7.57;;;16.90;99.90;;;;;;5015917;28;20135;-64
2021/06/08 05:46:28;;;;;;;7.68;7.05;;;16.90;99.90;;;;;;5017485;28;20099;-64
2021/06/08 05:48:55;;;;;;;13.85;8.65;;;16.90;99.90;;;;;;5015658;28;20060;-64
2021/06/08 05:51:23;;;;;;;11.75;8.65;;;16.70;99.90;;;;;;5017155;28;20049;-64
2021/06/08 05:53:51;;;;;;;9.77;8.85;;;16.30;99.90;;;;;;5015171;28;20132;-64
2021/06/08 05:56:19;;;;;;;10.00;8.88;;;16.10;99.90;;;;;;5016149;28;20053;-64
2021/06/08 05:58:46;;;;;;;8.20;7.40;;;16.00;99.90;;;;;;5016473;28;20080;-64
2021/06/08 06:01:13;;;;;;;8.60;7.70;;;16.00;99.90;;;;;;5017317;28;20077;-64
2021/06/08 06:03:41;;;;;;;9.40;7.22;;;16.00;99.90;;;;;;5013165;28;20134;-64
2021/06/08 06:06:25;;;;;;;10.63;8.22;;;15.90;99.90;;;;;;2923782;28;10003190;-64
2021/06/08 06:08:54;;;;;;;13.75;9.68;;;15.90;99.90;;;;;;3979612;28;10001761;-64
2021/06/08 06:11:22;;;;;;;8.25;7.15;;;15.90;99.90;;;;;;5016549;28;20053;-64
2021/06/08 06:13:54;;;;;;;9.45;8.02;;;15.90;99.90;;;;;;5014292;28;20069;-64
2021/06/08 06:16:22;;;;;;;13.00;9.07;;;15.90;99.90;;;;;;5017290;28;20132;-64
2021/06/08 06:18:49;;;;;;;13.98;8.65;;;16.00;99.90;;;;;;5017033;28;21513;-64
2021/06/08 06:21:17;;;;;;;14.88;8.20;;;16.00;99.90;;;;;;5015836;28;20470;-65
2021/06/08 06:23:45;;;;;;;10.93;8.90;;;16.10;99.90;;;;;;5014796;28;20351;-64
2021/06/08 06:26:12;;;;;;;8.55;7.63;;;16.00;99.90;;;;;;5018143;28;20068;-64
2021/06/08 06:28:42;;;;;;;12.52;7.80;;;16.00;99.90;;;;;;5016077;28;20065;-64
2021/06/08 06:31:09;;;;;;;10.48;8.55;;;16.10;99.90;;;;;;5018114;28;20130;-64
2021/06/08 06:33:36;;;;;;;8.88;7.88;;;16.10;99.90;;;;;;5015711;28;20165;-64
2021/06/08 06:36:04;;;;;;;8.32;7.53;;;16.20;99.90;;;;;;5014939;28;20072;-64
2021/06/08 06:38:32;;;;;;;8.55;7.45;;;16.20;99.90;;;;;;5003014;28;20131;-65
2021/06/08 06:41:07;;;;;;;10.30;7.95;;;16.20;99.90;;;;;;5010788;28;20049;-64
2021/06/08 06:43:37;;;;;;;12.00;7.63;;;16.20;99.90;;;;;;5011309;28;20126;-64
2021/06/08 06:46:04;;;;;;;10.38;7.38;;;16.30;99.90;;;;;;5015351;28;20123;-64
2021/06/08 06:48:31;;;;;;;9.43;7.60;;;16.20;99.90;;;;;;5013636;28;20081;-64
2021/06/08 06:50:59;;;;;;;8.35;7.38;;;16.20;99.90;;;;;;5014320;28;20038;-64
2021/06/08 06:53:26;;;;;;;8.15;7.07;;;16.30;99.90;;;;;;5014436;28;20251;-64
2021/06/08 06:55:53;;;;;;;10.13;7.55;;;16.20;99.90;;;;;;5013503;28;20134;-65
2021/06/08 06:58:21;;;;;;;11.00;7.88;;;16.20;99.90;;;;;;5016615;28;20400;-65
2021/06/08 07:00:49;;;;;;;8.27;7.47;;;16.20;99.90;;;;;;5014296;28;20538;-64
2021/06/08 07:03:23;;;;;;;9.48;8.52;;;16.20;99.90;;;;;;5015357;28;20085;-64
2021/06/08 07:05:50;;;;;;;7.57;6.45;;;16.20;99.90;;;;;;5015255;28;20060;-65
2021/06/08 07:08:22;;;;;;;8.00;6.72;;;16.20;99.90;;;;;;5015666;28;20052;-64
2021/06/08 07:10:53;;;;;;;8.05;7.28;;;16.20;99.90;;;;;;5013960;28;20109;-65
2021/06/08 07:13:21;;;;;;;9.65;6.18;;;16.20;99.90;;;;;;5016787;28;20480;-65
2021/06/08 07:15:50;;;;;;;7.45;6.75;;;16.20;99.90;;;;;;5013662;28;20084;-65
2021/06/08 07:18:17;;;;;;;8.73;7.35;;;16.20;99.90;;;;;;5017213;28;20171;-65
2021/06/08 07:20:45;;;;;;;8.52;7.68;;;16.40;99.90;;;;;;5014234;28;20134;-64
2021/06/08 07:23:17;;;;;;;14.55;10.07;;;16.40;99.90;;;;;;5045848;28;20163;-65
2021/06/08 07:25:44;;;;;;;6.45;5.95;;;16.60;99.90;;;;;;5014808;28;20119;-65
2021/06/08 07:28:12;;;;;;;7.30;6.57;;;16.60;99.90;;;;;;5016173;28;20795;-64
2021/06/08 07:30:42;;;;;;;6.88;6.05;;;16.70;99.90;;;;;;5015462;28;20048;-65
2021/06/08 07:33:22;;;;;;;5.72;4.95;;;16.70;99.90;;;;;;5016611;28;20057;-65
2021/06/08 07:36:02;;;;;;;5.47;5.05;;;16.90;99.90;;;;;;5014412;28;20045;-65
2021/06/08 07:38:43;;;;;;;5.40;5.00;;;17.00;99.90;;;;;;5016497;28;20707;-65
2021/06/08 07:41:19;;;;;;;5.50;5.10;;;17.10;99.90;;;;;;5015850;28;20100;-65
2021/06/08 07:44:00;;;;;;;5.10;4.63;;;17.10;99.90;;;;;;5047018;28;21790;-65
2021/06/08 07:46:28;;;;;;;;;;;17.20;99.90;;;;;;5012450;28;20471;-65
2021/06/08 07:48:58;;;;;;;4.38;3.97;;;17.30;99.90;;;;;;5012831;28;19936;-65
2021/06/08 07:51:28;;;;;;;5.40;4.90;;;17.30;99.90;;;;;;5014661;28;20073;-65
2021/06/08 07:53:56;;;;;;;5.65;5.25;;;17.40;99.90;;;;;;5011850;28;20064;-65
2021/06/08 07:56:23;;;;;;;5.30;4.75;;;17.40;99.90;;;;;;5013967;28;20465;-65
2021/06/08 07:58:50;;;;;;;6.28;4.72;;;17.40;99.90;;;;;;5015108;28;20504;-65
2021/06/08 08:01:20;;;;;;;6.18;5.65;;;17.40;99.90;;;;;;5019119;28;20159;-65
2021/06/08 08:03:49;;;;;;;7.82;5.05;;;17.40;99.90;;;;;;5014466;28;20077;-65
2021/06/08 08:06:18;;;;;;;6.20;5.70;;;17.40;99.90;;;;;;5019455;28;20803;-65
2021/06/08 08:08:48;;;;;;;7.47;5.55;;;17.40;99.90;;;;;;5018258;28;20141;-65
2021/06/08 08:11:17;;;;;;;5.90;5.32;;;17.60;99.90;;;;;;5018831;28;20140;-65
2021/06/08 08:13:51;;;;;;;5.85;5.35;;;17.70;99.90;;;;;;5015353;28;20073;-65
2021/06/08 08:16:18;;;;;;;7.03;5.93;;;17.80;99.90;;;;;;5019573;28;20068;-65
2021/06/08 08:18:46;;;;;;;6.35;5.72;;;17.80;99.90;;;;;;5017214;28;20057;-65
2021/06/08 08:21:17;;;;;;;10.38;6.13;;;17.80;99.90;;;;;;5019139;28;20138;-65
2021/06/08 08:23:45;;;;;;;5.65;5.15;;;18.00;99.90;;;;;;5017130;28;20532;-65
2021/06/08 08:26:12;;;;;;;5.20;4.65;;;18.20;99.90;;;;;;5019252;28;20143;-65
2021/06/08 08:28:41;;;;;;;6.15;5.65;;;18.20;99.90;;;;;;5017724;28;20154;-65
2021/06/08 08:31:12;;;;;;;6.80;6.30;;;18.20;99.90;;;;;;5020683;28;20549;-65
2021/06/08 08:33:39;;;;;;;5.53;5.03;;;18.20;99.90;;;;;;5016629;28;20049;-65
2021/06/08 08:36:06;;;;;;;5.10;4.65;;;18.30;99.90;;;;;;5020110;28;20553;-65
2021/06/08 08:38:34;;;;;;;7.10;6.40;;;18.40;99.90;;;;;;5018139;28;20057;-66
2021/06/08 08:41:03;;;;;;;5.88;5.40;;;18.50;99.90;;;;;;5019598;28;21385;-65
2021/06/08 08:43:48;;;;;;;5.45;4.95;;;18.60;99.90;;;;;;5017221;28;20235;-65
2021/06/08 08:46:18;;;;;;;5.93;5.43;;;18.80;99.90;;;;;;5018511;28;20843;-65
2021/06/08 08:48:47;;;;;;;6.88;6.28;;;18.90;99.90;;;;;;5018762;28;20041;-65
2021/06/08 08:51:16;;;;;;;5.77;5.23;;;18.90;99.90;;;;;;5013497;28;20131;-65
2021/06/08 08:53:44;;;;;;;5.82;5.43;;;18.90;99.90;;;;;;5016061;28;20383;-66
2021/06/08 08:56:24;;;;;;;5.28;4.18;;;19.10;99.90;;;;;;5016783;28;20482;-66
2021/06/08 08:58:51;;;;;;;4.35;4.05;;;19.10;99.90;;;;;;5017788;28;20695;-65
2021/06/08 09:01:19;;;;;;;5.07;4.68;;;19.00;99.90;;;;;;5015915;28;20141;-65
2021/06/08 09:03:47;;;;;;;5.78;4.30;;;18.90;99.90;;;;;;5017527;28;20154;-65
2021/06/08 09:06:16;;;;;;;5.45;4.95;;;18.70;99.90;;;;;;5017440;28;20196;-65
2021/06/08 09:08:43;;;;;;;5.80;5.28;;;18.50;99.90;;;;;;5018158;28;20121;-65
2021/06/08 09:11:11;;;;;;;6.43;5.93;;;18.40;99.90;;;;;;5016741;28;20122;-65
2021/06/08 09:13:42;;;;;;;5.88;5.32;;;18.40;99.90;;;;;;5016970;28;20098;-66
2021/06/08 09:16:10;;;;;;;5.75;5.35;;;18.50;99.90;;;;;;5015848;28;20080;-65
2021/06/08 09:18:38;;;;;;;5.88;5.22;;;18.50;99.90;;;;;;5018133;28;20200;-65
2021/06/08 09:21:20;;;;;;;6.25;5.65;;;18.60;99.90;;;;;;5016751;28;21273;-66
2021/06/08 09:23:48;;;;;;;5.88;5.28;;;18.50;99.90;;;;;;5017102;28;20136;-66
2021/06/08 09:26:15;;;;;;;5.75;5.32;;;18.50;99.90;;;;;;5019069;28;20049;-66
2021/06/08 09:28:44;;;;;;;5.97;5.50;;;18.60;99.90;;;;;;5017659;28;20049;-65
2021/06/08 09:31:13;;;;;;;6.55;5.53;;;18.60;99.90;;;;;;5017509;28;20138;-65
2021/06/08 09:33:43;;;;;;;7.05;5.80;;;18.60;99.90;;;;;;5017029;28;20680;-66
2021/06/08 09:36:16;;;;;;;6.53;5.88;;;18.70;99.90;;;;;;5016369;28;20099;-65
2021/06/08 09:39:05;;;;;;;6.75;6.15;;;18.60;99.90;;;;;;5019256;28;20661;-65
2021/06/08 09:41:37;;;;;;;7.25;5.90;;;18.50;99.90;;;;;;5014403;28;20190;-66
2021/06/08 09:44:07;;;;;;;6.50;5.93;;;18.30;99.90;;;;;;5018939;28;20235;-66
2021/06/08 09:46:43;;;;;;;6.10;5.47;;;18.30;99.90;;;;;;5015724;28;20132;-66
2021/06/08 09:49:12;;;;;;;6.95;6.35;;;18.30;99.90;;;;;;5018406;28;20124;-65
2021/06/08 09:51:56;;;;;;;7.50;6.15;;;18.30;99.90;;;;;;5014935;28;20072;-66
2021/06/08 09:54:27;;;;;;;7.38;6.68;;;18.50;99.90;;;;;;5017552;28;20095;-66
2021/06/08 09:57:22;;;;;;;7.22;6.13;;;18.70;99.90;;;;;;5013817;28;20084;-65
2021/06/08 10:00:01;;;;;;;5.20;4.80;;;18.80;99.90;;;;;;5014222;28;20147;-66
2021/06/08 10:02:50;;;;;;;4.75;4.35;;;18.80;99.90;;;;;;5015889;28;20103;-66
2021/06/08 10:05:22;;;;;;;6.43;5.82;;;18.90;99.90;;;;;;5015749;28;20460;-66
2021/06/08 10:07:52;;;;;;;7.35;5.78;;;19.00;99.90;;;;;;5015653;28;20108;-66
2021/06/08 10:10:22;;;;;;;6.00;5.30;;;19.00;99.90;;;;;;5015391;28;20049;-65
2021/06/08 10:13:05;;;;;;;5.70;5.20;;;19.10;99.90;;;;;;5016325;28;20133;-66
2021/06/08 10:15:50;;;;;;;10.70;6.45;;;19.20;99.90;;;;;;5015639;28;20154;-66
2021/06/08 10:18:17;;;;;;;6.15;5.65;;;19.20;99.90;;;;;;5016843;28;20049;-65
2021/06/08 10:20:53;;;;;;;7.82;5.80;;;18.90;99.90;;;;;;5014550;28;20123;-65
2021/06/08 10:23:24;;;;;;;7.72;7.15;;;18.70;99.90;;;;;;5014826;28;20132;-65
2021/06/08 10:25:55;;;;;;;6.45;5.93;;;18.50;99.90;;;;;;5013809;28;20387;-66
2021/06/08 10:28:22;;;;;;;6.75;6.25;;;18.50;99.90;;;;;;5015965;28;20822;-66
2021/06/08 10:30:51;;;;;;;8.13;7.32;;;18.40;99.90;;;;;;5016334;28;20136;-65
2021/06/08 10:33:38;;;;;;;7.68;6.22;;;18.50;99.90;;;;;;5014876;28;20057;-66
2021/06/08 10:36:16;;;;;;;7.80;6.25;;;18.70;99.90;;;;;;5015131;28;20060;-65
2021/06/08 10:38:43;;;;;;;7.05;6.43;;;18.80;99.90;;;;;;5016640;28;20096;-65
2021/06/08 10:41:10;;;;;;;7.85;7.10;;;18.80;99.90;;;;;;5016829;28;20146;-66
2021/06/08 10:43:37;;;;;;;8.52;7.82;;;18.90;99.90;;;;;;5014457;28;20053;-66
2021/06/08 10:46:14;;;;;;;19.70;7.70;;;19.10;99.90;;;;;;5017058;28;20487;-66
2021/06/08 10:48:46;;;;;;;8.88;7.97;;;19.10;99.90;;;;;;5016688;28;20053;-65
2021/06/08 10:51:21;;;;;;;8.02;7.38;;;19.40;99.90;;;;;;5016852;28;20083;-66
2021/06/08 10:53:56;;;;;;;8.13;6.85;;;19.50;99.90;;;;;;5015615;28;20049;-66
2021/06/08 10:56:31;;;;;;;7.85;7.18;;;19.50;99.90;;;;;;5018506;28;20270;-65
2021/06/08 10:59:02;;;;;;;10.23;7.32;;;19.20;99.90;;;;;;5012944;28;20057;-66
2021/06/08 11:01:50;;;;;;;7.80;7.03;;;19.20;99.90;;;;;;5013892;28;20072;-67
2021/06/08 11:04:24;;;;;;;8.07;7.28;;;19.20;99.90;;;;;;5015805;28;20057;-66
2021/06/08 11:06:56;;;;;;;8.07;7.30;;;19.00;99.90;;;;;;5014290;28;20041;-66
2021/06/08 11:09:23;;;;;;;7.93;6.90;;;19.00;99.90;;;;;;5015703;28;20579;-66
2021/06/08 11:12:08;;;;;;;9.45;7.72;;;19.20;99.90;;;;;;5015704;28;20168;-66
2021/06/08 11:14:39;;;;;;;8.00;6.95;;;19.40;99.90;;;;;;5015443;28;20056;-66
2021/06/08 11:17:11;;;;;;;9.00;8.18;;;19.50;99.90;;;;;;5015254;28;20721;-66
2021/06/08 11:19:41;;;;;;;6.57;5.97;;;19.60;99.90;;;;;;5015111;28;20076;-66
2021/06/08 11:22:09;;;;;;;7.32;6.75;;;19.50;99.90;;;;;;5014391;28;20094;-66
2021/06/08 11:24:38;;;;;;;7.22;6.35;;;19.50;99.90;;;;;;5015243;28;20149;-66
2021/06/08 11:27:06;;;;;;;9.83;7.80;;;19.60;99.90;;;;;;5014802;28;20107;-66
2021/06/08 11:29:44;;;;;;;7.68;7.07;;;19.80;99.90;;;;;;5013830;28;20413;-66
2021/06/08 11:32:32;;;;;;;7.65;7.00;;;19.70;99.90;;;;;;5016327;28;20045;-66
2021/06/08 11:35:11;;;;;;;8.30;7.10;;;19.40;99.90;;;;;;5018827;28;20068;-65
2021/06/08 11:37:56;;;;;;;7.45;6.75;;;19.30;99.90;;;;;;5016273;28;20060;-66
2021/06/08 11:40:38;;;;;;;8.30;7.57;;;19.30;99.90;;;;;;5019499;28;20099;-66
2021/06/08 11:43:11;;;;;;;7.93;7.32;;;19.10;99.90;;;;;;5018459;28;21542;-65
2021/06/08 11:46:00;;;;;;;7.00;6.20;;;19.00;99.90;;;;;;5018900;28;20143;-65
2021/06/08 11:48:44;;;;;;;7.60;6.90;;;19.30;99.90;;;;;;5019340;28;20381;-66
2021/06/08 11:51:33;;;;;;;6.85;6.20;;;19.50;99.90;;;;;;5019402;28;20701;-66
2021/06/08 11:54:13;;;;;;;8.55;7.72;;;19.60;99.90;;;;;;5019414;28;20822;-66
2021/06/08 11:56:52;;;;;;;7.68;6.78;;;19.60;99.90;;;;;;5018924;28;20124;-66
2021/06/08 11:59:31;;;;;;;7.28;6.57;;;19.70;99.90;;;;;;5053989;28;21220;-66
2021/06/08 12:02:06;;;;;;;7.85;6.78;;;19.50;99.90;;;;;;5016399;28;20095;-65
2021/06/08 12:05:12;;;;;;;7.72;7.07;;;19.70;99.90;;;;;;5047739;28;20049;-65
2021/06/08 12:07:47;;;;;;;8.07;6.47;;;19.60;99.90;;;;;;5017356;28;20050;-66
2021/06/08 12:10:35;;;;;;;7.05;6.45;;;19.60;99.90;;;;;;5017825;28;20045;-66
2021/06/08 12:13:09;;;;;;;7.68;6.95;;;19.50;99.90;;;;;;5018979;28;20156;-65
2021/06/08 12:15:39;;;;;;;7.35;6.78;;;19.60;99.90;;;;;;5018310;28;20152;-66
2021/06/08 12:18:08;;;;;;;10.02;8.23;;;19.60;99.90;;;;;;5018100;28;20499;-65
2021/06/08 12:20:38;;;;;;;8.85;8.05;;;19.70;99.90;;;;;;5018402;28;20140;-66
2021/06/08 12:23:06;;;;;;;10.68;6.95;;;19.80;99.90;;;;;;5019184;28;20045;-65
2021/06/08 12:25:33;;;;;;;8.68;7.88;;;19.90;99.90;;;;;;5016259;28;20051;-66
2021/06/08 12:28:00;;;;;;;8.80;7.93;;;19.70;99.90;;;;;;5017561;28;20589;-66
2021/06/08 12:30:31;;;;;;;8.77;7.88;;;19.90;99.90;;;;;;5017067;28;20045;-66
2021/06/08 12:32:59;;;;;;;;;;;20.00;99.90;;;;;;5019486;28;20645;-65
2021/06/08 12:35:34;;;;;;;8.13;7.30;;;20.00;99.90;;;;;;5017130;28;20019;-65
2021/06/08 12:38:08;;;;;;;8.52;7.80;;;19.80;99.90;;;;;;5017367;28;20099;-66
2021/06/08 12:40:35;;;;;;;8.05;7.45;;;19.70;99.90;;;;;;5016575;28;20839;-65
2021/06/08 12:43:04;;;;;;;10.13;9.23;;;19.80;99.90;;;;;;5018410;28;20056;-66
2021/06/08 12:45:31;;;;;;;10.52;9.63;;;19.70;99.90;;;;;;5017225;28;20076;-66
2021/06/08 12:47:59;;;;;;;9.00;8.25;;;19.60;99.90;;;;;;5017709;28;20045;-66
2021/06/08 12:50:35;;;;;;;9.10;8.18;;;19.40;99.90;;;;;;5018900;28;20107;-65
2021/06/08 12:53:04;;;;;;;9.98;8.98;;;19.60;99.90;;;;;;5017557;28;20053;-66
2021/06/08 12:55:33;;;;;;;12.67;11.17;;;19.80;99.90;;;;;;5018063;28;20167;-66
2021/06/08 12:58:03;;;;;;;9.00;8.23;;;19.90;99.90;;;;;;5017050;28;20123;-65
2021/06/08 13:00:34;;;;;;;10.80;9.95;;;20.10;99.90;;;;;;5019384;28;20073;-65
2021/06/08 13:03:04;;;;;;;7.75;7.05;;;20.40;99.90;;;;;;5017526;28;20415;-66